createdAt,value
2022-11-10T00:00:25.060Z,12.54
2022-11-10T00:05:45.290Z,12.55
2022-11-10T00:11:07.018Z,12.52
2022-11-10T00:16:45.683Z,12.46
2022-11-10T00:22:06.030Z,12.40
2022-11-10T00:27:26.214Z,12.36
2022-11-10T00:32:48.253Z,12.32
2022-11-10T00:38:09.046Z,12.33
2022-11-10T00:43:29.987Z,12.35
2022-11-10T00:48:50.576Z,12.33
2022-11-10T00:54:11.703Z,12.17
2022-11-10T00:59:31.911Z,11.91
2022-11-10T01:04:52.309Z,11.75
2022-11-10T01:10:12.457Z,11.69
2022-11-10T01:15:32.961Z,11.78
2022-11-10T01:20:53.309Z,11.78
2022-11-10T01:26:14.206Z,11.78
2022-11-10T01:31:34.304Z,11.78
2022-11-10T01:36:54.544Z,11.79
2022-11-10T01:42:14.993Z,11.80
2022-11-10T01:47:35.270Z,11.82
2022-11-10T01:53:00.468Z,11.89
2022-11-10T01:58:28.626Z,11.94
2022-11-10T02:04:09.476Z,11.95
2022-11-10T02:09:29.845Z,11.94
2022-11-10T02:14:50.407Z,11.94
2022-11-10T02:20:14.192Z,11.93
2022-11-10T02:25:34.617Z,11.91
2022-11-10T02:30:54.926Z,11.91
2022-11-10T02:36:15.436Z,11.90
2022-11-10T02:41:35.535Z,11.82
2022-11-10T02:46:55.969Z,11.85
2022-11-10T02:52:16.342Z,11.91
2022-11-10T02:57:37.624Z,11.93
2022-11-10T03:03:02.358Z,11.93
2022-11-10T03:08:22.524Z,11.95
2022-11-10T03:14:00.411Z,11.91
2022-11-10T03:19:21.798Z,11.90
2022-11-10T03:24:41.813Z,11.89
2022-11-10T03:30:02.520Z,11.86
2022-11-10T03:35:22.877Z,11.85
2022-11-10T03:41:17.095Z,11.86
2022-11-10T03:46:23.337Z,11.88
2022-11-10T03:51:43.721Z,11.91
2022-11-10T03:57:04.437Z,11.91
2022-11-10T04:02:24.860Z,11.91
2022-11-10T04:08:04.152Z,11.91
2022-11-10T04:13:43.862Z,11.82
2022-11-10T04:19:04.479Z,11.75
2022-11-10T04:24:24.852Z,11.68
2022-11-10T04:29:44.965Z,11.65
2022-11-10T04:35:05.353Z,11.64
2022-11-10T04:40:25.554Z,11.65
2022-11-10T04:45:45.818Z,11.64
2022-11-10T04:51:07.215Z,11.54
2022-11-10T04:56:28.254Z,11.42
2022-11-10T05:01:48.566Z,11.43
2022-11-10T05:07:08.888Z,11.44
2022-11-10T05:12:29.082Z,11.38
2022-11-10T05:17:50.551Z,11.35
2022-11-10T05:23:29.629Z,11.30
2022-11-10T05:28:50.060Z,11.07
2022-11-10T05:34:10.079Z,11.00
2022-11-10T05:39:30.602Z,11.01
2022-11-10T05:44:50.791Z,10.98
2022-11-10T05:50:11.471Z,10.87
2022-11-10T05:55:31.800Z,10.87
2022-11-10T06:00:52.096Z,10.86
2022-11-10T06:06:12.074Z,10.82
2022-11-10T06:11:32.507Z,10.78
2022-11-10T06:16:53.064Z,10.93
2022-11-10T06:22:13.379Z,11.03
2022-11-10T06:27:33.557Z,10.88
2022-11-10T06:32:54.158Z,10.71
2022-11-10T06:38:14.489Z,10.59
2022-11-10T06:43:34.888Z,10.55
2022-11-10T06:48:55.229Z,10.44
2022-11-10T06:54:15.350Z,10.32
2022-11-10T06:59:35.737Z,10.29
2022-11-10T07:04:56.338Z,10.37
2022-11-10T07:10:16.583Z,10.40
2022-11-10T07:15:36.885Z,10.42
2022-11-10T07:20:57.150Z,10.47
2022-11-10T07:26:17.258Z,10.53
2022-11-10T07:31:37.339Z,10.61
2022-11-10T07:36:57.815Z,10.72
2022-11-10T07:42:18.236Z,10.79
2022-11-10T07:47:38.668Z,10.87
2022-11-10T07:53:12.976Z,10.89
2022-11-10T07:58:34.205Z,10.90
2022-11-10T08:03:54.199Z,10.94
2022-11-10T08:09:14.145Z,11.08
2022-11-10T08:14:34.530Z,11.19
2022-11-10T08:19:55.020Z,11.29
2022-11-10T08:25:15.187Z,11.34
2022-11-10T08:30:37.241Z,11.42
2022-11-10T08:35:57.407Z,11.53
2022-11-10T08:41:18.140Z,11.61
2022-11-10T08:46:38.345Z,11.66
2022-11-10T08:51:58.868Z,11.77
2022-11-10T08:57:18.961Z,11.88
2022-11-10T09:02:39.318Z,12.06
2022-11-10T09:07:59.769Z,12.29
2022-11-10T09:13:28.220Z,12.48
2022-11-10T09:18:50.222Z,12.51
2022-11-10T09:24:10.833Z,12.33
2022-11-10T09:29:33.411Z,12.33
2022-11-10T09:34:53.973Z,12.57
2022-11-10T09:40:29.730Z,12.78
2022-11-10T09:45:53.756Z,12.74
2022-11-10T09:51:30.788Z,12.69
2022-11-10T09:56:53.586Z,12.72
2022-11-10T10:02:24.426Z,12.87
2022-11-10T10:08:00.209Z,12.80
2022-11-10T10:13:42.238Z,12.58
2022-11-10T10:19:05.206Z,12.44
2022-11-10T10:24:32.400Z,12.57
2022-11-10T10:29:53.344Z,12.70
2022-11-10T10:35:16.161Z,12.72
2022-11-10T10:40:36.901Z,12.58
2022-11-10T10:46:11.625Z,12.52
2022-11-10T10:51:32.044Z,12.53
2022-11-10T10:57:02.672Z,12.66
2022-11-10T11:02:29.718Z,12.79
2022-11-10T11:07:59.778Z,12.99
2022-11-10T11:13:24.887Z,13.28
2022-11-10T11:18:45.375Z,13.48
2022-11-10T11:24:42.714Z,13.71
2022-11-10T11:30:06.377Z,13.65
2022-11-10T11:35:31.389Z,13.27
2022-11-10T11:41:03.799Z,13.12
2022-11-10T11:46:47.892Z,13.29
2022-11-10T11:52:21.241Z,13.57
2022-11-10T11:57:53.014Z,13.35
2022-11-10T12:03:42.715Z,13.26
2022-11-10T12:09:05.938Z,13.07
2022-11-10T12:14:53.895Z,12.91
2022-11-10T12:20:32.093Z,12.91
2022-11-10T12:26:29.892Z,12.90
2022-11-10T12:31:55.805Z,12.93
2022-11-10T12:37:27.703Z,13.35
2022-11-10T12:42:56.984Z,13.67
2022-11-10T12:48:18.895Z,13.86
2022-11-10T12:53:41.933Z,14.04
2022-11-10T12:59:20.515Z,14.16
2022-11-10T13:04:40.807Z,14.25
2022-11-10T13:10:19.277Z,14.38
2022-11-10T13:15:46.046Z,14.54
2022-11-10T13:21:06.376Z,14.56
2022-11-10T13:26:38.943Z,14.59
2022-11-10T13:32:19.721Z,14.75
2022-11-10T13:37:39.911Z,14.60
2022-11-10T13:43:00.258Z,14.62
2022-11-10T13:48:38.579Z,14.63
2022-11-10T13:54:22.116Z,14.45
2022-11-10T13:59:52.570Z,14.31
2022-11-10T14:05:34.391Z,14.20
2022-11-10T14:11:02.188Z,14.13
2022-11-10T14:16:25.891Z,13.98
2022-11-10T14:21:55.352Z,13.95
2022-11-10T14:27:25.865Z,13.89
2022-11-10T14:32:55.302Z,13.74
2022-11-10T14:38:24.519Z,13.65
2022-11-10T14:43:59.112Z,13.56
2022-11-10T14:49:26.534Z,13.59
2022-11-10T14:54:47.133Z,13.64
2022-11-10T15:00:21.883Z,13.60
2022-11-10T15:05:48.898Z,13.25
2022-11-10T15:11:39.355Z,12.90
2022-11-10T15:17:01.992Z,12.64
2022-11-10T15:22:36.599Z,12.20
2022-11-10T15:28:00.716Z,12.03
2022-11-10T15:33:45.929Z,11.77
2022-11-10T15:39:12.195Z,11.59
2022-11-10T15:44:32.747Z,11.48
2022-11-10T15:49:53.927Z,11.34
2022-11-10T15:55:21.460Z,11.22
2022-11-10T16:00:42.035Z,11.10
2022-11-10T16:06:02.437Z,10.89
2022-11-10T16:11:23.537Z,10.78
2022-11-10T16:16:43.817Z,10.69
2022-11-10T16:22:03.847Z,10.63
2022-11-10T16:27:24.187Z,10.55
2022-11-10T16:32:44.443Z,10.31
2022-11-10T16:38:31.247Z,10.11
2022-11-10T16:43:52.131Z,9.93
2022-11-10T16:49:26.500Z,9.92
2022-11-10T16:54:46.736Z,9.88
2022-11-10T17:00:07.852Z,9.70
2022-11-10T17:05:28.435Z,9.52
2022-11-10T17:10:49.961Z,9.36
2022-11-10T17:16:33.064Z,9.20
2022-11-10T17:21:54.321Z,9.13
2022-11-10T17:27:16.786Z,9.13
2022-11-10T17:33:03.007Z,9.03
2022-11-10T17:38:29.364Z,8.96
2022-11-10T17:43:49.670Z,8.97
2022-11-10T17:49:10.002Z,8.96
2022-11-10T17:54:30.516Z,8.92
2022-11-10T17:59:50.839Z,8.82
2022-11-10T18:05:16.951Z,8.74
2022-11-10T18:10:40.589Z,8.71
2022-11-10T18:16:00.914Z,9.27
2022-11-10T18:21:21.668Z,9.77
2022-11-10T18:26:42.690Z,9.67
2022-11-10T18:32:03.464Z,9.31
2022-11-10T18:37:23.880Z,9.15
2022-11-10T18:42:44.434Z,8.81
2022-11-10T18:48:05.005Z,8.63
2022-11-10T18:53:25.721Z,8.61
2022-11-10T18:58:56.185Z,8.58
2022-11-10T19:04:16.847Z,8.56
2022-11-10T19:09:37.824Z,8.52
2022-11-10T19:14:57.940Z,8.43
2022-11-10T19:20:18.188Z,8.34
2022-11-10T19:25:38.754Z,8.32
2022-11-10T19:31:07.582Z,8.32
2022-11-10T19:36:28.495Z,8.31
2022-11-10T19:41:48.932Z,8.31
2022-11-10T19:47:09.110Z,8.29
2022-11-10T19:52:29.627Z,8.04
2022-11-10T19:57:49.729Z,8.03
2022-11-10T20:03:11.363Z,8.11
2022-11-10T20:08:32.576Z,8.12
2022-11-10T20:13:55.600Z,7.88
2022-11-10T20:19:16.183Z,7.85
2022-11-10T20:24:36.631Z,7.84
2022-11-10T20:29:56.784Z,7.87
2022-11-10T20:35:17.337Z,7.84
2022-11-10T20:40:44.363Z,7.63
2022-11-10T20:46:07.135Z,7.39
2022-11-10T20:51:27.828Z,7.33
2022-11-10T20:56:48.187Z,7.40
2022-11-10T21:02:11.178Z,7.43
2022-11-10T21:07:31.648Z,7.42
2022-11-10T21:12:52.045Z,7.46
2022-11-10T21:18:12.105Z,7.38
2022-11-10T21:23:32.435Z,7.32
2022-11-10T21:28:53.135Z,7.23
2022-11-10T21:34:13.459Z,7.17
2022-11-10T21:39:33.709Z,7.15
2022-11-10T21:44:54.053Z,7.09
2022-11-10T21:50:14.705Z,6.86
2022-11-10T21:55:34.756Z,6.65
2022-11-10T22:01:12.228Z,6.70
2022-11-10T22:06:51.663Z,6.81
2022-11-10T22:12:31.915Z,6.86
2022-11-10T22:18:11.460Z,6.82
2022-11-10T22:23:50.719Z,6.78
2022-11-10T22:29:11.551Z,6.71
2022-11-10T22:34:32.068Z,6.47
2022-11-10T22:40:10.830Z,6.48
2022-11-10T22:45:31.328Z,6.48
2022-11-10T22:50:59.440Z,6.51
2022-11-10T22:56:19.777Z,6.54
2022-11-10T23:01:41.281Z,6.51
2022-11-10T23:07:01.739Z,6.49
2022-11-10T23:12:21.945Z,6.44
2022-11-10T23:17:42.146Z,6.35
2022-11-10T23:23:02.777Z,6.30
2022-11-10T23:28:23.085Z,6.18
2022-11-10T23:33:45.121Z,6.10
2022-11-10T23:39:05.656Z,6.04
2022-11-10T23:44:26.126Z,6.05
2022-11-10T23:49:46.708Z,6.10
2022-11-10T23:55:07.384Z,6.02
